sensor_id;sensor_type;location;lat;lon;timestamp;P1;durP1;ratioP1;P2;durP2;ratioP2
23338;SDS011;11841;49.368;20.962;2023-10-09T00:02:27;2.25;;;1.80;;
23338;SDS011;11841;49.368;20.962;2023-10-09T00:05:14;4.13;;;2.42;;
23338;SDS011;11841;49.368;20.962;2023-10-09T00:08:08;2.92;;;2.20;;
23338;SDS011;11841;49.368;20.962;2023-10-09T00:10:54;6.05;;;2.10;;
23338;SDS011;11841;49.368;20.962;2023-10-09T00:13:40;3.17;;;2.20;;
23338;SDS011;11841;49.368;20.962;2023-10-09T00:16:34;4.18;;;2.08;;
23338;SDS011;11841;49.368;20.962;2023-10-09T00:19:21;6.63;;;2.05;;
23338;SDS011;11841;49.368;20.962;2023-10-09T00:22:15;4.50;;;1.95;;
23338;SDS011;11841;49.368;20.962;2023-10-09T00:25:09;3.53;;;1.38;;
23338;SDS011;11841;49.368;20.962;2023-10-09T00:27:59;3.33;;;2.08;;
23338;SDS011;11841;49.368;20.962;2023-10-09T00:30:50;4.38;;;2.10;;
23338;SDS011;11841;49.368;20.962;2023-10-09T00:33:37;3.90;;;1.95;;
23338;SDS011;11841;49.368;20.962;2023-10-09T00:36:23;3.53;;;2.10;;
23338;SDS011;11841;49.368;20.962;2023-10-09T00:39:13;4.45;;;1.88;;
23338;SDS011;11841;49.368;20.962;2023-10-09T00:42:06;4.70;;;1.77;;
23338;SDS011;11841;49.368;20.962;2023-10-09T00:44:53;3.90;;;1.75;;
23338;SDS011;11841;49.368;20.962;2023-10-09T00:47:39;6.65;;;1.60;;
23338;SDS011;11841;49.368;20.962;2023-10-09T00:50:26;3.65;;;1.75;;
23338;SDS011;11841;49.368;20.962;2023-10-09T00:53:11;3.15;;;1.67;;
23338;SDS011;11841;49.368;20.962;2023-10-09T00:56:03;2.33;;;1.50;;
23338;SDS011;11841;49.368;20.962;2023-10-09T00:59:06;2.72;;;1.58;;
23338;SDS011;11841;49.368;20.962;2023-10-09T01:01:53;5.78;;;1.67;;
23338;SDS011;11841;49.368;20.962;2023-10-09T01:04:44;3.63;;;2.10;;
23338;SDS011;11841;49.368;20.962;2023-10-09T01:07:30;2.75;;;1.75;;
23338;SDS011;11841;49.368;20.962;2023-10-09T01:10:16;4.80;;;1.83;;
23338;SDS011;11841;49.368;20.962;2023-10-09T01:13:03;4.53;;;1.63;;
23338;SDS011;11841;49.368;20.962;2023-10-09T01:15:48;3.15;;;1.88;;
23338;SDS011;11841;49.368;20.962;2023-10-09T01:18:34;3.28;;;2.05;;
23338;SDS011;11841;49.368;20.962;2023-10-09T01:21:24;3.33;;;2.08;;
23338;SDS011;11841;49.368;20.962;2023-10-09T01:24:11;2.95;;;1.60;;
23338;SDS011;11841;49.368;20.962;2023-10-09T01:26:57;4.18;;;1.30;;
23338;SDS011;11841;49.368;20.962;2023-10-09T01:29:44;2.65;;;1.85;;
23338;SDS011;11841;49.368;20.962;2023-10-09T01:32:31;2.53;;;1.70;;
23338;SDS011;11841;49.368;20.962;2023-10-09T01:35:17;13.18;;;2.78;;
23338;SDS011;11841;49.368;20.962;2023-10-09T01:38:06;2.67;;;1.55;;
23338;SDS011;11841;49.368;20.962;2023-10-09T01:40:58;1.88;;;1.25;;
23338;SDS011;11841;49.368;20.962;2023-10-09T01:43:51;2.70;;;1.60;;
23338;SDS011;11841;49.368;20.962;2023-10-09T01:46:43;4.13;;;1.83;;
23338;SDS011;11841;49.368;20.962;2023-10-09T01:49:31;2.83;;;1.85;;
23338;SDS011;11841;49.368;20.962;2023-10-09T01:52:16;3.47;;;1.83;;
23338;SDS011;11841;49.368;20.962;2023-10-09T01:55:02;4.47;;;2.10;;
23338;SDS011;11841;49.368;20.962;2023-10-09T01:58:00;5.32;;;2.20;;
23338;SDS011;11841;49.368;20.962;2023-10-09T02:01:09;1.42;;;1.33;;
23338;SDS011;11841;49.368;20.962;2023-10-09T02:03:55;4.55;;;1.83;;
23338;SDS011;11841;49.368;20.962;2023-10-09T02:06:48;3.55;;;1.70;;
23338;SDS011;11841;49.368;20.962;2023-10-09T02:09:37;5.70;;;1.90;;
23338;SDS011;11841;49.368;20.962;2023-10-09T02:12:29;5.25;;;1.58;;
23338;SDS011;11841;49.368;20.962;2023-10-09T02:15:19;4.82;;;1.73;;
23338;SDS011;11841;49.368;20.962;2023-10-09T02:18:25;2.58;;;1.48;;
23338;SDS011;11841;49.368;20.962;2023-10-09T02:21:12;3.03;;;1.75;;
23338;SDS011;11841;49.368;20.962;2023-10-09T02:23:57;4.85;;;1.63;;
23338;SDS011;11841;49.368;20.962;2023-10-09T02:26:47;4.65;;;2.03;;
23338;SDS011;11841;49.368;20.962;2023-10-09T02:29:39;3.13;;;1.70;;
23338;SDS011;11841;49.368;20.962;2023-10-09T02:32:26;1.77;;;1.33;;
23338;SDS011;11841;49.368;20.962;2023-10-09T02:35:13;4.05;;;1.45;;
23338;SDS011;11841;49.368;20.962;2023-10-09T02:38:06;2.15;;;1.50;;
23338;SDS011;11841;49.368;20.962;2023-10-09T02:40:52;1.90;;;1.38;;
23338;SDS011;11841;49.368;20.962;2023-10-09T02:43:49;3.92;;;1.63;;
23338;SDS011;11841;49.368;20.962;2023-10-09T02:46:40;6.65;;;2.03;;
23338;SDS011;11841;49.368;20.962;2023-10-09T02:49:25;3.40;;;1.52;;
23338;SDS011;11841;49.368;20.962;2023-10-09T02:52:11;2.70;;;1.60;;
23338;SDS011;11841;49.368;20.962;2023-10-09T02:55:01;4.38;;;1.38;;
23338;SDS011;11841;49.368;20.962;2023-10-09T02:57:53;2.58;;;1.60;;
23338;SDS011;11841;49.368;20.962;2023-10-09T03:00:50;4.27;;;1.60;;
23338;SDS011;11841;49.368;20.962;2023-10-09T03:03:36;3.55;;;1.55;;
23338;SDS011;11841;49.368;20.962;2023-10-09T03:06:23;3.28;;;1.38;;
23338;SDS011;11841;49.368;20.962;2023-10-09T03:09:14;4.60;;;1.52;;
23338;SDS011;11841;49.368;20.962;2023-10-09T03:12:02;3.17;;;1.80;;
23338;SDS011;11841;49.368;20.962;2023-10-09T03:14:49;1.77;;;1.67;;
23338;SDS011;11841;49.368;20.962;2023-10-09T03:17:35;3.63;;;1.60;;
23338;SDS011;11841;49.368;20.962;2023-10-09T03:20:21;2.38;;;1.67;;
23338;SDS011;11841;49.368;20.962;2023-10-09T03:23:06;3.75;;;1.73;;
23338;SDS011;11841;49.368;20.962;2023-10-09T03:25:52;3.47;;;1.77;;
23338;SDS011;11841;49.368;20.962;2023-10-09T03:28:48;3.17;;;1.80;;
23338;SDS011;11841;49.368;20.962;2023-10-09T03:31:34;2.95;;;1.77;;
23338;SDS011;11841;49.368;20.962;2023-10-09T03:34:19;2.78;;;1.70;;
23338;SDS011;11841;49.368;20.962;2023-10-09T03:37:05;1.83;;;1.45;;
23338;SDS011;11841;49.368;20.962;2023-10-09T03:39:51;3.40;;;2.20;;
23338;SDS011;11841;49.368;20.962;2023-10-09T03:45:27;2.30;;;1.67;;
23338;SDS011;11841;49.368;20.962;2023-10-09T03:48:16;1.48;;;1.25;;
23338;SDS011;11841;49.368;20.962;2023-10-09T03:51:11;3.38;;;2.15;;
23338;SDS011;11841;49.368;20.962;2023-10-09T03:53:58;2.92;;;1.92;;
23338;SDS011;11841;49.368;20.962;2023-10-09T03:56:43;4.05;;;2.15;;
23338;SDS011;11841;49.368;20.962;2023-10-09T03:59:29;3.60;;;1.63;;
23338;SDS011;11841;49.368;20.962;2023-10-09T04:02:15;4.63;;;1.60;;
23338;SDS011;11841;49.368;20.962;2023-10-09T04:05:03;2.65;;;1.73;;
23338;SDS011;11841;49.368;20.962;2023-10-09T04:10:39;3.25;;;1.50;;
23338;SDS011;11841;49.368;20.962;2023-10-09T04:13:41;7.00;;;2.05;;
23338;SDS011;11841;49.368;20.962;2023-10-09T04:16:27;4.85;;;1.77;;
23338;SDS011;11841;49.368;20.962;2023-10-09T04:19:18;3.38;;;2.13;;
23338;SDS011;11841;49.368;20.962;2023-10-09T04:22:09;3.00;;;1.75;;
23338;SDS011;11841;49.368;20.962;2023-10-09T04:25:10;3.60;;;1.83;;
23338;SDS011;11841;49.368;20.962;2023-10-09T04:27:59;2.75;;;1.60;;
23338;SDS011;11841;49.368;20.962;2023-10-09T04:30:55;3.38;;;2.22;;
23338;SDS011;11841;49.368;20.962;2023-10-09T04:33:41;3.03;;;1.70;;
23338;SDS011;11841;49.368;20.962;2023-10-09T04:36:39;5.95;;;1.88;;
23338;SDS011;11841;49.368;20.962;2023-10-09T04:39:41;3.28;;;1.77;;
23338;SDS011;11841;49.368;20.962;2023-10-09T04:42:32;2.50;;;1.70;;
23338;SDS011;11841;49.368;20.962;2023-10-09T04:45:24;3.13;;;1.67;;
23338;SDS011;11841;49.368;20.962;2023-10-09T04:48:28;2.65;;;1.40;;
23338;SDS011;11841;49.368;20.962;2023-10-09T04:51:23;3.30;;;1.70;;
23338;SDS011;11841;49.368;20.962;2023-10-09T04:54:20;5.13;;;2.53;;
23338;SDS011;11841;49.368;20.962;2023-10-09T04:57:24;3.20;;;1.90;;
23338;SDS011;11841;49.368;20.962;2023-10-09T05:00:14;2.55;;;1.65;;
23338;SDS011;11841;49.368;20.962;2023-10-09T05:03:10;2.50;;;1.48;;
23338;SDS011;11841;49.368;20.962;2023-10-09T05:05:57;4.32;;;1.63;;
23338;SDS011;11841;49.368;20.962;2023-10-09T05:09:05;5.18;;;2.00;;
23338;SDS011;11841;49.368;20.962;2023-10-09T05:11:53;2.08;;;1.63;;
23338;SDS011;11841;49.368;20.962;2023-10-09T05:14:39;2.53;;;1.67;;
23338;SDS011;11841;49.368;20.962;2023-10-09T05:17:24;3.72;;;2.53;;
23338;SDS011;11841;49.368;20.962;2023-10-09T05:20:11;5.03;;;1.98;;
23338;SDS011;11841;49.368;20.962;2023-10-09T05:23:25;4.57;;;2.60;;
23338;SDS011;11841;49.368;20.962;2023-10-09T05:26:10;9.45;;;4.50;;
23338;SDS011;11841;49.368;20.962;2023-10-09T05:29:15;7.50;;;4.00;;
23338;SDS011;11841;49.368;20.962;2023-10-09T05:32:05;12.30;;;3.58;;
23338;SDS011;11841;49.368;20.962;2023-10-09T05:34:57;7.35;;;3.35;;
23338;SDS011;11841;49.368;20.962;2023-10-09T05:37:45;9.37;;;4.30;;
23338;SDS011;11841;49.368;20.962;2023-10-09T05:40:31;9.23;;;4.28;;
23338;SDS011;11841;49.368;20.962;2023-10-09T05:43:16;7.38;;;3.78;;
23338;SDS011;11841;49.368;20.962;2023-10-09T05:46:21;15.60;;;4.75;;
23338;SDS011;11841;49.368;20.962;2023-10-09T05:49:20;13.98;;;6.50;;
23338;SDS011;11841;49.368;20.962;2023-10-09T05:55:14;13.18;;;6.13;;
23338;SDS011;11841;49.368;20.962;2023-10-09T05:58:08;12.68;;;5.78;;
23338;SDS011;11841;49.368;20.962;2023-10-09T06:00:54;8.27;;;4.85;;
23338;SDS011;11841;49.368;20.962;2023-10-09T06:03:57;15.68;;;5.95;;
23338;SDS011;11841;49.368;20.962;2023-10-09T06:07:00;11.32;;;5.53;;
23338;SDS011;11841;49.368;20.962;2023-10-09T06:09:56;12.82;;;6.32;;
23338;SDS011;11841;49.368;20.962;2023-10-09T06:12:43;10.25;;;5.05;;
23338;SDS011;11841;49.368;20.962;2023-10-09T06:15:28;8.85;;;4.70;;
23338;SDS011;11841;49.368;20.962;2023-10-09T06:18:33;8.68;;;4.88;;
23338;SDS011;11841;49.368;20.962;2023-10-09T06:21:20;8.13;;;3.88;;
23338;SDS011;11841;49.368;20.962;2023-10-09T06:24:44;10.82;;;3.58;;
23338;SDS011;11841;49.368;20.962;2023-10-09T06:27:38;16.75;;;3.53;;
23338;SDS011;11841;49.368;20.962;2023-10-09T06:30:42;6.93;;;2.95;;
23338;SDS011;11841;49.368;20.962;2023-10-09T06:33:31;14.30;;;3.85;;
23338;SDS011;11841;49.368;20.962;2023-10-09T06:36:37;11.18;;;4.40;;
23338;SDS011;11841;49.368;20.962;2023-10-09T06:39:35;10.37;;;5.13;;
23338;SDS011;11841;49.368;20.962;2023-10-09T06:42:36;9.05;;;4.75;;
23338;SDS011;11841;49.368;20.962;2023-10-09T06:45:24;9.00;;;4.03;;
23338;SDS011;11841;49.368;20.962;2023-10-09T06:48:29;6.70;;;3.63;;
23338;SDS011;11841;49.368;20.962;2023-10-09T06:51:20;7.78;;;4.88;;
23338;SDS011;11841;49.368;20.962;2023-10-09T06:54:11;7.45;;;4.85;;
23338;SDS011;11841;49.368;20.962;2023-10-09T06:57:01;6.45;;;4.60;;
23338;SDS011;11841;49.368;20.962;2023-10-09T06:59:58;8.48;;;3.25;;
23338;SDS011;11841;49.368;20.962;2023-10-09T07:03:02;6.05;;;2.70;;
23338;SDS011;11841;49.368;20.962;2023-10-09T07:06:03;2.97;;;2.08;;
23338;SDS011;11841;49.368;20.962;2023-10-09T07:09:10;6.68;;;2.63;;
23338;SDS011;11841;49.368;20.962;2023-10-09T07:11:56;6.72;;;3.63;;
23338;SDS011;11841;49.368;20.962;2023-10-09T07:14:43;8.90;;;4.22;;
23338;SDS011;11841;49.368;20.962;2023-10-09T07:17:29;5.00;;;2.88;;
23338;SDS011;11841;49.368;20.962;2023-10-09T07:20:21;6.70;;;3.75;;
23338;SDS011;11841;49.368;20.962;2023-10-09T07:23:21;9.05;;;4.28;;
23338;SDS011;11841;49.368;20.962;2023-10-09T07:26:08;8.38;;;4.18;;
23338;SDS011;11841;49.368;20.962;2023-10-09T07:29:13;6.65;;;3.85;;
23338;SDS011;11841;49.368;20.962;2023-10-09T07:32:03;8.38;;;4.25;;
23338;SDS011;11841;49.368;20.962;2023-10-09T07:34:57;6.10;;;3.22;;
23338;SDS011;11841;49.368;20.962;2023-10-09T07:37:43;10.23;;;3.88;;
23338;SDS011;11841;49.368;20.962;2023-10-09T07:40:36;7.00;;;3.90;;
23338;SDS011;11841;49.368;20.962;2023-10-09T07:43:44;10.88;;;4.35;;
23338;SDS011;11841;49.368;20.962;2023-10-09T07:46:29;6.55;;;3.40;;
23338;SDS011;11841;49.368;20.962;2023-10-09T07:52:10;7.32;;;3.90;;
23338;SDS011;11841;49.368;20.962;2023-10-09T07:54:55;8.27;;;4.57;;
23338;SDS011;11841;49.368;20.962;2023-10-09T07:57:49;6.13;;;4.10;;
23338;SDS011;11841;49.368;20.962;2023-10-09T08:00:39;17.45;;;7.85;;
23338;SDS011;11841;49.368;20.962;2023-10-09T08:03:43;13.18;;;5.20;;
23338;SDS011;11841;49.368;20.962;2023-10-09T08:06:34;2.92;;;2.45;;
23338;SDS011;11841;49.368;20.962;2023-10-09T08:09:49;2.65;;;1.70;;
23338;SDS011;11841;49.368;20.962;2023-10-09T08:12:57;8.95;;;1.90;;
23338;SDS011;11841;49.368;20.962;2023-10-09T08:15:43;4.72;;;2.30;;
23338;SDS011;11841;49.368;20.962;2023-10-09T08:18:38;3.88;;;2.08;;
23338;SDS011;11841;49.368;20.962;2023-10-09T08:21:30;2.92;;;1.90;;
23338;SDS011;11841;49.368;20.962;2023-10-09T08:24:30;4.03;;;2.30;;
23338;SDS011;11841;49.368;20.962;2023-10-09T08:27:36;7.45;;;3.53;;
23338;SDS011;11841;49.368;20.962;2023-10-09T08:30:21;9.13;;;4.55;;
23338;SDS011;11841;49.368;20.962;2023-10-09T08:33:07;11.55;;;5.30;;
23338;SDS011;11841;49.368;20.962;2023-10-09T08:36:16;11.38;;;4.75;;
23338;SDS011;11841;49.368;20.962;2023-10-09T08:39:08;12.98;;;4.20;;
23338;SDS011;11841;49.368;20.962;2023-10-09T08:42:10;6.32;;;2.90;;
23338;SDS011;11841;49.368;20.962;2023-10-09T08:44:55;2.50;;;1.90;;
23338;SDS011;11841;49.368;20.962;2023-10-09T08:47:45;3.35;;;1.92;;
23338;SDS011;11841;49.368;20.962;2023-10-09T08:50:35;2.47;;;1.55;;
23338;SDS011;11841;49.368;20.962;2023-10-09T08:53:22;3.35;;;1.50;;
23338;SDS011;11841;49.368;20.962;2023-10-09T08:56:09;2.78;;;1.70;;
23338;SDS011;11841;49.368;20.962;2023-10-09T08:58:56;3.22;;;1.67;;
23338;SDS011;11841;49.368;20.962;2023-10-09T09:04:35;2.65;;;1.52;;
23338;SDS011;11841;49.368;20.962;2023-10-09T09:07:26;1.52;;;1.20;;
23338;SDS011;11841;49.368;20.962;2023-10-09T09:10:16;3.03;;;1.50;;
23338;SDS011;11841;49.368;20.962;2023-10-09T09:13:10;2.58;;;1.60;;
23338;SDS011;11841;49.368;20.962;2023-10-09T09:16:03;3.72;;;1.70;;
23338;SDS011;11841;49.368;20.962;2023-10-09T09:18:52;1.95;;;1.50;;
23338;SDS011;11841;49.368;20.962;2023-10-09T09:21:50;4.72;;;3.85;;
23338;SDS011;11841;49.368;20.962;2023-10-09T09:24:40;14.93;;;4.53;;
23338;SDS011;11841;49.368;20.962;2023-10-09T09:27:46;7.78;;;3.60;;
23338;SDS011;11841;49.368;20.962;2023-10-09T09:30:39;3.85;;;1.58;;
23338;SDS011;11841;49.368;20.962;2023-10-09T09:33:28;7.82;;;1.95;;
23338;SDS011;11841;49.368;20.962;2023-10-09T09:36:25;2.97;;;1.70;;
23338;SDS011;11841;49.368;20.962;2023-10-09T09:39:13;4.77;;;2.53;;
23338;SDS011;11841;49.368;20.962;2023-10-09T09:42:04;10.27;;;2.97;;
23338;SDS011;11841;49.368;20.962;2023-10-09T09:45:00;5.80;;;2.65;;
23338;SDS011;11841;49.368;20.962;2023-10-09T09:47:46;5.47;;;2.35;;
23338;SDS011;11841;49.368;20.962;2023-10-09T09:50:37;6.38;;;3.30;;
23338;SDS011;11841;49.368;20.962;2023-10-09T09:53:28;3.03;;;2.28;;
23338;SDS011;11841;49.368;20.962;2023-10-09T09:56:18;4.25;;;2.35;;
23338;SDS011;11841;49.368;20.962;2023-10-09T09:59:09;7.18;;;2.42;;
23338;SDS011;11841;49.368;20.962;2023-10-09T10:01:59;4.35;;;2.65;;
23338;SDS011;11841;49.368;20.962;2023-10-09T10:04:53;2.97;;;2.15;;
23338;SDS011;11841;49.368;20.962;2023-10-09T10:07:41;5.95;;;2.50;;
23338;SDS011;11841;49.368;20.962;2023-10-09T10:16:26;7.75;;;4.10;;
23338;SDS011;11841;49.368;20.962;2023-10-09T10:19:20;8.63;;;3.97;;
23338;SDS011;11841;49.368;20.962;2023-10-09T10:22:24;7.80;;;3.70;;
23338;SDS011;11841;49.368;20.962;2023-10-09T10:28:18;7.72;;;3.50;;
23338;SDS011;11841;49.368;20.962;2023-10-09T10:31:14;6.47;;;3.13;;
23338;SDS011;11841;49.368;20.962;2023-10-09T10:36:46;5.10;;;2.97;;
23338;SDS011;11841;49.368;20.962;2023-10-09T10:39:39;3.60;;;2.80;;
23338;SDS011;11841;49.368;20.962;2023-10-09T10:42:35;4.07;;;2.40;;
23338;SDS011;11841;49.368;20.962;2023-10-09T10:45:20;6.13;;;3.28;;
23338;SDS011;11841;49.368;20.962;2023-10-09T10:48:22;2.10;;;1.60;;
23338;SDS011;11841;49.368;20.962;2023-10-09T10:51:21;3.17;;;2.25;;
23338;SDS011;11841;49.368;20.962;2023-10-09T10:54:07;4.68;;;2.00;;
23338;SDS011;11841;49.368;20.962;2023-10-09T10:57:22;1.67;;;1.58;;
23338;SDS011;11841;49.368;20.962;2023-10-09T11:00:14;3.15;;;2.05;;
23338;SDS011;11841;49.368;20.962;2023-10-09T11:03:19;2.55;;;1.45;;
23338;SDS011;11841;49.368;20.962;2023-10-09T11:06:15;2.85;;;1.90;;
23338;SDS011;11841;49.368;20.962;2023-10-09T11:09:10;11.90;;;5.10;;
23338;SDS011;11841;49.368;20.962;2023-10-09T11:12:06;8.88;;;3.92;;
23338;SDS011;11841;49.368;20.962;2023-10-09T11:15:12;9.38;;;4.18;;
23338;SDS011;11841;49.368;20.962;2023-10-09T11:18:07;4.80;;;3.45;;
23338;SDS011;11841;49.368;20.962;2023-10-09T11:21:01;5.80;;;2.55;;
23338;SDS011;11841;49.368;20.962;2023-10-09T11:23:47;2.58;;;1.83;;
23338;SDS011;11841;49.368;20.962;2023-10-09T11:26:43;5.50;;;2.75;;
23338;SDS011;11841;49.368;20.962;2023-10-09T11:29:40;11.30;;;4.63;;
23338;SDS011;11841;49.368;20.962;2023-10-09T11:32:35;9.52;;;4.57;;
23338;SDS011;11841;49.368;20.962;2023-10-09T11:35:23;10.25;;;5.22;;
23338;SDS011;11841;49.368;20.962;2023-10-09T11:38:19;6.20;;;3.58;;
23338;SDS011;11841;49.368;20.962;2023-10-09T11:41:12;8.10;;;3.70;;
23338;SDS011;11841;49.368;20.962;2023-10-09T11:44:04;9.55;;;4.45;;
23338;SDS011;11841;49.368;20.962;2023-10-09T11:46:56;4.40;;;3.08;;
23338;SDS011;11841;49.368;20.962;2023-10-09T11:50:01;6.55;;;3.15;;
23338;SDS011;11841;49.368;20.962;2023-10-09T11:52:57;5.40;;;3.17;;
23338;SDS011;11841;49.368;20.962;2023-10-09T11:56:02;16.90;;;8.55;;
23338;SDS011;11841;49.368;20.962;2023-10-09T11:58:48;49.80;;;25.77;;
23338;SDS011;11841;49.368;20.962;2023-10-09T12:01:38;19.95;;;10.23;;
23338;SDS011;11841;49.368;20.962;2023-10-09T12:07:15;57.08;;;27.98;;
23338;SDS011;11841;49.368;20.962;2023-10-09T12:10:01;19.30;;;9.85;;
23338;SDS011;11841;49.368;20.962;2023-10-09T12:12:48;15.82;;;8.10;;
23338;SDS011;11841;49.368;20.962;2023-10-09T12:15:34;25.40;;;11.05;;
23338;SDS011;11841;49.368;20.962;2023-10-09T12:18:22;16.65;;;8.40;;
23338;SDS011;11841;49.368;20.962;2023-10-09T12:21:09;14.63;;;9.40;;
23338;SDS011;11841;49.368;20.962;2023-10-09T12:24:01;14.57;;;7.93;;
23338;SDS011;11841;49.368;20.962;2023-10-09T12:26:47;10.35;;;6.75;;
23338;SDS011;11841;49.368;20.962;2023-10-09T12:29:32;9.90;;;5.85;;
23338;SDS011;11841;49.368;20.962;2023-10-09T12:32:18;8.00;;;5.78;;
23338;SDS011;11841;49.368;20.962;2023-10-09T12:35:05;4.85;;;4.15;;
23338;SDS011;11841;49.368;20.962;2023-10-09T12:38:02;5.07;;;3.60;;
23338;SDS011;11841;49.368;20.962;2023-10-09T12:40:48;20.88;;;11.05;;
23338;SDS011;11841;49.368;20.962;2023-10-09T12:43:36;14.88;;;8.05;;
23338;SDS011;11841;49.368;20.962;2023-10-09T12:46:23;9.25;;;5.38;;
23338;SDS011;11841;49.368;20.962;2023-10-09T12:49:08;6.05;;;4.13;;
23338;SDS011;11841;49.368;20.962;2023-10-09T12:51:55;8.02;;;5.15;;
23338;SDS011;11841;49.368;20.962;2023-10-09T12:54:42;13.65;;;6.85;;
23338;SDS011;11841;49.368;20.962;2023-10-09T12:57:28;27.27;;;14.10;;
23338;SDS011;11841;49.368;20.962;2023-10-09T13:00:14;9.35;;;6.53;;
23338;SDS011;11841;49.368;20.962;2023-10-09T13:03:10;7.70;;;4.45;;
23338;SDS011;11841;49.368;20.962;2023-10-09T13:06:02;13.02;;;9.63;;
23338;SDS011;11841;49.368;20.962;2023-10-09T13:08:52;8.70;;;6.00;;
23338;SDS011;11841;49.368;20.962;2023-10-09T13:11:37;4.13;;;2.28;;
23338;SDS011;11841;49.368;20.962;2023-10-09T13:14:25;3.42;;;2.15;;
23338;SDS011;11841;49.368;20.962;2023-10-09T13:17:10;3.63;;;2.60;;
23338;SDS011;11841;49.368;20.962;2023-10-09T13:19:56;4.35;;;3.20;;
23338;SDS011;11841;49.368;20.962;2023-10-09T13:22:42;4.55;;;3.33;;
23338;SDS011;11841;49.368;20.962;2023-10-09T13:25:28;4.80;;;3.13;;
23338;SDS011;11841;49.368;20.962;2023-10-09T13:28:24;6.28;;;4.18;;
23338;SDS011;11841;49.368;20.962;2023-10-09T13:31:10;4.57;;;2.90;;
23338;SDS011;11841;49.368;20.962;2023-10-09T13:33:58;7.50;;;4.43;;
23338;SDS011;11841;49.368;20.962;2023-10-09T13:36:46;5.18;;;4.07;;
23338;SDS011;11841;49.368;20.962;2023-10-09T13:39:44;8.75;;;5.68;;
23338;SDS011;11841;49.368;20.962;2023-10-09T13:42:38;8.55;;;4.40;;
23338;SDS011;11841;49.368;20.962;2023-10-09T13:45:27;7.40;;;3.65;;
23338;SDS011;11841;49.368;20.962;2023-10-09T13:48:13;6.55;;;3.90;;
23338;SDS011;11841;49.368;20.962;2023-10-09T13:51:03;4.88;;;4.28;;
23338;SDS011;11841;49.368;20.962;2023-10-09T13:53:52;6.82;;;5.90;;
23338;SDS011;11841;49.368;20.962;2023-10-09T13:56:38;7.47;;;5.35;;
23338;SDS011;11841;49.368;20.962;2023-10-09T13:59:24;6.78;;;3.42;;
23338;SDS011;11841;49.368;20.962;2023-10-09T14:02:11;12.30;;;5.38;;
23338;SDS011;11841;49.368;20.962;2023-10-09T14:05:03;9.95;;;6.57;;
23338;SDS011;11841;49.368;20.962;2023-10-09T14:07:53;8.07;;;3.97;;
23338;SDS011;11841;49.368;20.962;2023-10-09T14:10:42;5.80;;;3.80;;
23338;SDS011;11841;49.368;20.962;2023-10-09T14:13:33;5.50;;;3.65;;
23338;SDS011;11841;49.368;20.962;2023-10-09T14:16:19;2.70;;;2.50;;
23338;SDS011;11841;49.368;20.962;2023-10-09T14:19:13;6.28;;;2.80;;
23338;SDS011;11841;49.368;20.962;2023-10-09T14:21:58;5.95;;;3.42;;
23338;SDS011;11841;49.368;20.962;2023-10-09T14:24:44;6.35;;;3.65;;
23338;SDS011;11841;49.368;20.962;2023-10-09T14:27:30;3.28;;;2.78;;
23338;SDS011;11841;49.368;20.962;2023-10-09T14:30:20;4.07;;;3.13;;
23338;SDS011;11841;49.368;20.962;2023-10-09T14:33:15;4.30;;;3.10;;
23338;SDS011;11841;49.368;20.962;2023-10-09T14:36:08;7.85;;;3.35;;
23338;SDS011;11841;49.368;20.962;2023-10-09T14:38:53;3.67;;;2.65;;
23338;SDS011;11841;49.368;20.962;2023-10-09T14:41:39;4.70;;;2.38;;
23338;SDS011;11841;49.368;20.962;2023-10-09T14:44:25;5.68;;;4.18;;
23338;SDS011;11841;49.368;20.962;2023-10-09T14:47:13;4.90;;;3.53;;
23338;SDS011;11841;49.368;20.962;2023-10-09T14:50:03;7.82;;;4.50;;
23338;SDS011;11841;49.368;20.962;2023-10-09T14:52:53;5.45;;;3.63;;
23338;SDS011;11841;49.368;20.962;2023-10-09T14:55:38;3.80;;;2.95;;
23338;SDS011;11841;49.368;20.962;2023-10-09T14:58:23;4.90;;;2.72;;
23338;SDS011;11841;49.368;20.962;2023-10-09T15:01:10;7.13;;;2.72;;
23338;SDS011;11841;49.368;20.962;2023-10-09T15:03:58;4.22;;;2.58;;
23338;SDS011;11841;49.368;20.962;2023-10-09T15:06:44;3.35;;;3.00;;
23338;SDS011;11841;49.368;20.962;2023-10-09T15:09:32;4.53;;;2.45;;
23338;SDS011;11841;49.368;20.962;2023-10-09T15:12:21;3.20;;;2.60;;
23338;SDS011;11841;49.368;20.962;2023-10-09T15:15:08;3.08;;;2.75;;
23338;SDS011;11841;49.368;20.962;2023-10-09T15:17:58;3.65;;;2.20;;
23338;SDS011;11841;49.368;20.962;2023-10-09T15:20:44;4.03;;;3.45;;
23338;SDS011;11841;49.368;20.962;2023-10-09T15:23:31;4.60;;;3.70;;
23338;SDS011;11841;49.368;20.962;2023-10-09T15:26:17;5.03;;;3.67;;
23338;SDS011;11841;49.368;20.962;2023-10-09T15:29:03;8.68;;;3.72;;
23338;SDS011;11841;49.368;20.962;2023-10-09T15:31:51;8.10;;;3.97;;
23338;SDS011;11841;49.368;20.962;2023-10-09T15:34:37;7.05;;;3.70;;
23338;SDS011;11841;49.368;20.962;2023-10-09T15:37:22;6.65;;;4.10;;
23338;SDS011;11841;49.368;20.962;2023-10-09T15:40:08;12.60;;;7.00;;
23338;SDS011;11841;49.368;20.962;2023-10-09T15:43:00;15.35;;;8.13;;
23338;SDS011;11841;49.368;20.962;2023-10-09T15:45:46;18.13;;;10.70;;
23338;SDS011;11841;49.368;20.962;2023-10-09T15:48:34;24.52;;;12.60;;
23338;SDS011;11841;49.368;20.962;2023-10-09T15:51:21;36.22;;;16.40;;
23338;SDS011;11841;49.368;20.962;2023-10-09T15:54:07;38.20;;;16.17;;
23338;SDS011;11841;49.368;20.962;2023-10-09T15:59:57;39.55;;;20.77;;
23338;SDS011;11841;49.368;20.962;2023-10-09T16:02:47;37.85;;;21.65;;
23338;SDS011;11841;49.368;20.962;2023-10-09T16:05:33;29.45;;;14.05;;
23338;SDS011;11841;49.368;20.962;2023-10-09T16:08:20;22.05;;;12.23;;
23338;SDS011;11841;49.368;20.962;2023-10-09T16:11:08;55.25;;;24.80;;
23338;SDS011;11841;49.368;20.962;2023-10-09T16:13:54;24.13;;;14.13;;
23338;SDS011;11841;49.368;20.962;2023-10-09T16:16:39;18.00;;;9.73;;
23338;SDS011;11841;49.368;20.962;2023-10-09T16:19:30;19.35;;;9.45;;
23338;SDS011;11841;49.368;20.962;2023-10-09T16:22:18;11.68;;;7.40;;
23338;SDS011;11841;49.368;20.962;2023-10-09T16:25:03;10.05;;;6.57;;
23338;SDS011;11841;49.368;20.962;2023-10-09T16:27:54;14.43;;;7.95;;
23338;SDS011;11841;49.368;20.962;2023-10-09T16:30:41;15.98;;;11.02;;
23338;SDS011;11841;49.368;20.962;2023-10-09T16:33:28;10.13;;;7.07;;
23338;SDS011;11841;49.368;20.962;2023-10-09T16:36:14;35.58;;;20.23;;
23338;SDS011;11841;49.368;20.962;2023-10-09T16:39:01;21.67;;;12.70;;
23338;SDS011;11841;49.368;20.962;2023-10-09T16:41:48;8.05;;;5.72;;
23338;SDS011;11841;49.368;20.962;2023-10-09T16:44:34;6.65;;;4.28;;
23338;SDS011;11841;49.368;20.962;2023-10-09T16:47:21;18.83;;;10.98;;
23338;SDS011;11841;49.368;20.962;2023-10-09T16:50:07;10.88;;;7.20;;
23338;SDS011;11841;49.368;20.962;2023-10-09T16:53:13;12.30;;;7.57;;
23338;SDS011;11841;49.368;20.962;2023-10-09T16:56:10;14.43;;;9.57;;
23338;SDS011;11841;49.368;20.962;2023-10-09T16:58:56;13.27;;;6.15;;
23338;SDS011;11841;49.368;20.962;2023-10-09T17:01:41;20.67;;;8.88;;
23338;SDS011;11841;49.368;20.962;2023-10-09T17:04:29;58.13;;;25.80;;
23338;SDS011;11841;49.368;20.962;2023-10-09T17:07:15;38.60;;;16.50;;
23338;SDS011;11841;49.368;20.962;2023-10-09T17:10:00;11.52;;;6.97;;
23338;SDS011;11841;49.368;20.962;2023-10-09T17:12:54;15.93;;;6.50;;
23338;SDS011;11841;49.368;20.962;2023-10-09T17:15:40;15.50;;;7.63;;
23338;SDS011;11841;49.368;20.962;2023-10-09T17:18:25;5.63;;;2.67;;
23338;SDS011;11841;49.368;20.962;2023-10-09T17:21:12;4.55;;;3.03;;
23338;SDS011;11841;49.368;20.962;2023-10-09T17:23:58;6.97;;;4.30;;